Time;durP1;ratioP1;P1;durP2;ratioP2;P2;SDS_P1;SDS_P2;PMS_P1;PMS_P2;Temp;Humidity;BMP_temperature;BMP_pressure;BME280_temperature;BME280_humidity;BME280_pressure;Samples;Min_cycle;Max_cycle;Signal;HPM_P1;HPM_P2
2023/10/27 00:00:40;;;;;;;30.63;17.40;;;9.70;99.90;;;;;;5060316;28;20048;-68
2023/10/27 00:03:06;;;;;;;29.75;18.35;;;9.50;99.90;;;;;;5076781;28;20135;-68
2023/10/27 00:05:34;;;;;;;32.72;18.20;;;9.80;99.90;;;;;;5076869;28;20052;-68
2023/10/27 00:08:00;;;;;;;30.52;18.13;;;9.60;99.90;;;;;;5076855;28;20109;-68
2023/10/27 00:10:28;;;;;;;29.42;17.45;;;9.70;99.90;;;;;;5076622;28;20056;-68
2023/10/27 00:12:54;;;;;;;29.98;18.25;;;9.70;99.90;;;;;;5076913;28;20365;-68
2023/10/27 00:15:22;;;;;;;34.47;17.85;;;9.70;99.90;;;;;;5077006;28;20044;-68
2023/10/27 00:17:48;;;;;;;31.67;17.80;;;9.70;99.90;;;;;;5076718;28;20059;-68
2023/10/27 00:20:15;;;;;;;41.40;18.10;;;9.40;99.90;;;;;;5076866;28;20468;-68
2023/10/27 00:22:41;;;;;;;31.85;18.52;;;9.40;99.90;;;;;;5076523;28;20044;-68
2023/10/27 00:25:08;;;;;;;29.95;18.42;;;9.50;99.90;;;;;;5076920;28;20063;-68
2023/10/27 00:27:34;;;;;;;29.77;17.48;;;9.40;99.90;;;;;;5059851;28;20056;-67
2023/10/27 00:30:00;;;;;;;31.02;18.33;;;9.70;99.90;;;;;;5076553;28;20487;-68
2023/10/27 00:32:27;;;;;;;27.50;16.50;;;9.50;99.90;;;;;;5076509;28;20048;-68
2023/10/27 00:34:53;;;;;;;32.50;19.13;;;9.40;99.90;;;;;;5076554;28;20044;-68
2023/10/27 00:37:19;;;;;;;28.58;16.92;;;9.60;99.90;;;;;;5076633;28;20055;-67
2023/10/27 00:39:46;;;;;;;31.70;18.67;;;9.40;99.90;;;;;;5076412;28;20047;-67
2023/10/27 00:42:12;;;;;;;31.02;16.75;;;9.40;99.90;;;;;;5076991;28;20056;-68
2023/10/27 00:44:38;;;;;;;30.38;16.88;;;9.40;99.90;;;;;;5066380;28;20056;-68
2023/10/27 00:47:04;;;;;;;30.40;16.27;;;9.60;99.90;;;;;;5056468;28;20472;-68
2023/10/27 00:49:31;;;;;;;32.42;17.60;;;9.60;99.90;;;;;;5056554;28;20060;-67
2023/10/27 00:51:57;;;;;;;33.15;17.60;;;9.60;99.90;;;;;;5039664;28;20487;-68
2023/10/27 00:54:25;;;;;;;32.55;17.38;;;9.60;99.90;;;;;;5056552;28;20063;-68
2023/10/27 00:56:53;;;;;;;31.50;17.83;;;9.40;99.90;;;;;;5056575;28;20051;-68
2023/10/27 00:59:19;;;;;;;33.75;19.55;;;9.60;99.90;;;;;;5060668;28;20044;-68
2023/10/27 01:01:46;;;;;;;33.08;17.10;;;9.70;99.90;;;;;;5060441;28;20052;-68
2023/10/27 01:04:12;;;;;;;34.28;18.38;;;9.40;99.90;;;;;;5043879;28;20469;-68
2023/10/27 01:06:39;;;;;;;37.97;19.77;;;9.50;99.90;;;;;;5060192;28;20383;-68
2023/10/27 01:09:05;;;;;;;38.10;18.40;;;9.60;99.90;;;;;;5060173;28;20384;-68
2023/10/27 01:11:32;;;;;;;38.08;20.88;;;9.40;99.90;;;;;;5059966;28;20049;-68
2023/10/27 01:13:59;;;;;;;37.33;18.35;;;9.40;99.90;;;;;;5056525;28;20044;-68
2023/10/27 01:16:26;;;;;;;38.67;18.90;;;9.70;99.90;;;;;;5039899;28;20045;-68
2023/10/27 01:18:53;;;;;;;36.92;17.35;;;9.70;99.90;;;;;;5023683;28;20493;-68
2023/10/27 01:21:19;;;;;;;39.97;19.10;;;9.40;99.90;;;;;;5039741;28;20132;-67
2023/10/27 01:23:45;;;;;;;37.40;19.15;;;9.60;99.90;;;;;;5023622;28;20179;-68
2023/10/27 01:26:11;;;;;;;36.40;18.38;;;9.60;99.90;;;;;;5039812;28;20136;-68
2023/10/27 01:28:38;;;;;;;37.28;17.83;;;9.60;99.90;;;;;;5040001;28;20053;-68
2023/10/27 01:31:04;;;;;;;39.33;19.40;;;9.40;99.90;;;;;;5023395;28;20119;-67
2023/10/27 01:33:30;;;;;;;38.15;19.38;;;9.40;99.90;;;;;;5039946;28;20041;-68
2023/10/27 01:35:57;;;;;;;39.45;20.00;;;9.40;99.90;;;;;;5039875;28;20480;-68
2023/10/27 01:38:23;;;;;;;36.33;19.25;;;9.60;99.90;;;;;;5039685;28;20481;-68
2023/10/27 01:40:49;;;;;;;42.55;20.67;;;9.60;99.90;;;;;;5040041;28;20330;-68
2023/10/27 01:43:15;;;;;;;38.83;19.77;;;9.50;99.90;;;;;;5039485;28;20053;-67
2023/10/27 01:45:42;;;;;;;38.90;19.20;;;9.40;99.90;;;;;;5057487;28;20052;-68
2023/10/27 01:48:08;;;;;;;40.80;21.48;;;9.60;99.90;;;;;;5059991;28;20056;-68
2023/10/27 01:50:34;;;;;;;41.13;20.60;;;9.60;99.90;;;;;;5059495;28;20052;-68
2023/10/27 01:53:01;;;;;;;38.95;20.50;;;9.30;99.90;;;;;;5059497;28;20044;-68
2023/10/27 01:55:29;;;;;;;38.90;18.45;;;9.60;99.90;;;;;;5059451;28;20110;-68
2023/10/27 01:57:55;;;;;;;38.55;19.33;;;9.40;99.90;;;;;;5059240;28;20481;-68
2023/10/27 02:00:21;;;;;;;38.67;18.50;;;9.30;99.90;;;;;;5059156;28;20056;-68
2023/10/27 02:02:48;;;;;;;41.45;20.70;;;9.60;99.90;;;;;;5058931;28;20049;-67
2023/10/27 02:05:14;;;;;;;41.13;19.70;;;9.50;99.90;;;;;;5059725;28;20056;-68
2023/10/27 02:07:40;;;;;;;40.00;19.50;;;9.40;99.90;;;;;;5058146;28;20068;-68
2023/10/27 02:10:07;;;;;;;35.92;19.75;;;9.40;99.90;;;;;;5059096;28;20045;-68
2023/10/27 02:12:33;;;;;;;38.35;19.48;;;9.50;99.90;;;;;;5042279;28;20484;-68
2023/10/27 02:15:00;;;;;;;38.80;19.58;;;9.30;99.90;;;;;;5058859;28;20417;-68
2023/10/27 02:17:27;;;;;;;36.15;18.05;;;9.40;99.90;;;;;;5058769;28;20099;-68
2023/10/27 02:19:55;;;;;;;39.30;20.52;;;9.60;99.90;;;;;;5058633;28;20049;-68
2023/10/27 02:22:22;;;;;;;41.55;20.23;;;9.50;99.90;;;;;;5058840;28;20044;-67
2023/10/27 02:24:48;;;;;;;41.35;20.42;;;9.50;99.90;;;;;;5058488;28;20059;-68
2023/10/27 02:27:14;;;;;;;37.72;20.48;;;9.40;99.90;;;;;;5058587;28;20056;-68
2023/10/27 02:29:41;;;;;;;39.67;20.35;;;9.30;99.90;;;;;;5059101;28;20049;-68
2023/10/27 02:32:07;;;;;;;40.17;20.17;;;9.30;99.90;;;;;;5058743;28;20176;-68
2023/10/27 02:34:33;;;;;;;40.35;18.85;;;9.60;99.90;;;;;;5041401;28;20052;-68
2023/10/27 02:37:00;;;;;;;43.03;21.42;;;9.40;99.90;;;;;;5058344;28;20044;-68
2023/10/27 02:39:26;;;;;;;41.55;20.25;;;9.60;99.90;;;;;;5058635;28;20048;-68
2023/10/27 02:41:52;;;;;;;44.10;20.45;;;9.40;99.90;;;;;;5058380;28;20049;-68
2023/10/27 02:44:18;;;;;;;41.38;20.33;;;9.40;99.90;;;;;;5058123;28;20061;-68
2023/10/27 02:46:44;;;;;;;40.92;20.77;;;9.50;99.90;;;;;;5058192;28;20491;-67
2023/10/27 02:49:11;;;;;;;40.55;19.70;;;9.70;99.90;;;;;;5058527;28;20102;-67
2023/10/27 02:51:37;;;;;;;40.10;21.98;;;9.70;99.90;;;;;;5057984;28;20044;-67
2023/10/27 02:54:03;;;;;;;41.75;21.50;;;9.70;99.90;;;;;;5041853;28;20063;-67
2023/10/27 02:56:30;;;;;;;39.15;18.75;;;9.50;99.90;;;;;;5058303;28;20040;-67
2023/10/27 02:58:56;;;;;;;41.72;20.63;;;9.40;99.90;;;;;;5041566;28;20110;-67
2023/10/27 03:01:22;;;;;;;41.83;20.52;;;9.60;99.90;;;;;;5057888;28;20461;-67
2023/10/27 03:03:49;;;;;;;39.47;21.27;;;9.70;99.90;;;;;;5058478;28;20056;-67
2023/10/27 03:06:15;;;;;;;42.78;20.13;;;9.70;99.90;;;;;;5057763;28;20062;-68
2023/10/27 03:08:42;;;;;;;38.70;19.85;;;9.70;99.90;;;;;;5058022;28;20527;-67
2023/10/27 03:11:08;;;;;;;42.67;19.95;;;9.40;99.90;;;;;;5057866;28;20040;-67
2023/10/27 03:13:35;;;;;;;45.03;20.83;;;9.50;99.90;;;;;;5058011;28;20052;-67
2023/10/27 03:16:03;;;;;;;43.75;20.88;;;9.70;99.90;;;;;;5057948;28;20071;-67
2023/10/27 03:18:29;;;;;;;43.75;20.42;;;9.70;99.90;;;;;;5057874;28;20049;-67
2023/10/27 03:20:56;;;;;;;39.92;18.25;;;9.70;99.90;;;;;;5056600;28;20060;-68
2023/10/27 03:23:24;;;;;;;42.30;20.83;;;9.50;99.90;;;;;;5057855;28;20060;-68
2023/10/27 03:25:51;;;;;;;42.85;19.30;;;9.70;99.90;;;;;;5057817;28;20504;-67
2023/10/27 03:28:17;;;;;;;40.10;19.75;;;9.70;99.90;;;;;;5057751;28;20056;-67
2023/10/27 03:30:50;;;;;;;38.88;19.77;;;9.70;99.90;;;;;;5057352;28;20106;-67
2023/10/27 03:33:17;;;;;;;40.83;19.73;;;9.50;99.90;;;;;;5057919;28;20071;-67
2023/10/27 03:35:44;;;;;;;39.35;18.60;;;9.50;99.90;;;;;;5057229;28;20473;-67
2023/10/27 03:38:11;;;;;;;42.50;19.73;;;9.50;99.90;;;;;;5057498;28;20048;-68
2023/10/27 03:40:38;;;;;;;46.47;20.70;;;9.70;99.90;;;;;;5057142;28;20106;-67
2023/10/27 03:43:04;;;;;;;42.53;19.70;;;9.80;99.90;;;;;;5040909;28;20057;-67
2023/10/27 03:45:30;;;;;;;43.60;18.85;;;9.60;99.90;;;;;;5057120;28;20376;-68
2023/10/27 03:47:57;;;;;;;40.67;18.85;;;9.80;99.90;;;;;;5057118;28;20048;-67
2023/10/27 03:50:23;;;;;;;38.95;20.70;;;9.60;99.90;;;;;;5040426;28;20052;-67
2023/10/27 03:52:56;;;;;;;40.58;18.70;;;9.50;99.90;;;;;;5057088;28;20048;-67
2023/10/27 03:55:23;;;;;;;45.03;20.30;;;9.50;99.90;;;;;;5057295;28;20052;-67
2023/10/27 03:57:50;;;;;;;45.03;19.98;;;9.80;99.90;;;;;;5056906;28;20048;-68
2023/10/27 04:00:16;;;;;;;37.67;19.27;;;9.50;99.90;;;;;;5040845;28;20066;-67
2023/10/27 04:02:45;;;;;;;40.47;19.20;;;9.50;99.90;;;;;;5056783;28;20424;-67
2023/10/27 04:05:11;;;;;;;42.72;20.85;;;9.70;99.90;;;;;;5040169;28;20472;-67
2023/10/27 04:07:38;;;;;;;37.95;18.40;;;9.80;99.90;;;;;;5057245;28;20053;-67
2023/10/27 04:10:04;;;;;;;42.70;21.27;;;9.50;99.90;;;;;;5056575;28;20064;-67
2023/10/27 04:12:31;;;;;;;39.05;19.65;;;9.50;99.90;;;;;;5056968;28;20048;-67
2023/10/27 04:14:57;;;;;;;41.38;19.98;;;9.50;99.90;;;;;;5056595;28;20546;-67
2023/10/27 04:17:23;;;;;;;36.97;18.80;;;9.70;99.90;;;;;;5040153;28;20110;-67
2023/10/27 04:19:50;;;;;;;37.38;18.85;;;9.50;99.90;;;;;;5056763;28;20070;-67
2023/10/27 04:22:16;;;;;;;38.25;18.63;;;9.70;99.90;;;;;;5056753;28;20114;-67
2023/10/27 04:24:42;;;;;;;43.13;21.30;;;9.60;99.90;;;;;;5064120;28;20474;-67
2023/10/27 04:27:09;;;;;;;42.85;20.33;;;9.60;99.90;;;;;;5076795;28;20047;-67
2023/10/27 04:29:36;;;;;;;44.67;21.42;;;9.60;99.90;;;;;;5076143;28;20054;-67
2023/10/27 04:32:04;;;;;;;43.22;20.92;;;9.70;99.90;;;;;;5076379;28;20082;-67
2023/10/27 04:34:30;;;;;;;46.20;22.55;;;9.70;99.90;;;;;;5076481;28;20127;-67
2023/10/27 04:36:56;;;;;;;40.75;19.80;;;9.50;99.90;;;;;;5076831;28;20056;-67
2023/10/27 04:39:23;;;;;;;44.28;20.60;;;9.50;99.90;;;;;;5076511;28;20123;-67
2023/10/27 04:41:49;;;;;;;47.80;20.27;;;9.70;99.90;;;;;;5076374;28;20051;-67
2023/10/27 04:44:17;;;;;;;42.50;19.77;;;9.50;99.90;;;;;;5069994;28;20064;-67
2023/10/27 04:46:43;;;;;;;38.40;18.60;;;9.40;99.90;;;;;;5056217;28;20052;-67
2023/10/27 04:49:09;;;;;;;40.00;19.02;;;9.70;99.90;;;;;;5056549;28;20083;-67
2023/10/27 04:51:35;;;;;;;42.00;20.70;;;9.70;99.90;;;;;;5056128;28;20044;-67
2023/10/27 04:54:03;;;;;;;39.58;19.80;;;9.50;99.90;;;;;;5056541;28;20369;-67
2023/10/27 04:56:29;;;;;;;39.22;19.30;;;9.70;99.90;;;;;;5039773;28;20383;-67
2023/10/27 04:58:56;;;;;;;41.58;18.75;;;9.70;99.90;;;;;;5056641;28;20476;-67
2023/10/27 05:01:25;;;;;;;37.90;19.25;;;9.50;99.90;;;;;;5038766;28;20045;-67
2023/10/27 05:03:51;;;;;;;39.13;18.90;;;9.50;99.90;;;;;;5036886;28;20049;-67
2023/10/27 05:06:18;;;;;;;45.13;21.63;;;9.70;99.90;;;;;;5036517;28;20116;-67
2023/10/27 05:08:45;;;;;;;43.42;22.05;;;9.40;99.90;;;;;;5019864;28;20045;-68
2023/10/27 05:11:12;;;;;;;46.65;20.65;;;9.60;99.90;;;;;;5036269;28;20049;-67
2023/10/27 05:13:38;;;;;;;45.97;19.35;;;9.50;99.90;;;;;;5036838;28;20056;-67
2023/10/27 05:16:05;;;;;;;50.08;21.10;;;9.50;99.90;;;;;;5024940;28;20362;-67
2023/10/27 05:18:31;;;;;;;46.20;20.42;;;9.50;99.90;;;;;;5036609;28;20045;-68
2023/10/27 05:20:58;;;;;;;49.60;22.65;;;9.70;99.90;;;;;;5036122;28;20059;-67
2023/10/27 05:23:24;;;;;;;47.75;20.88;;;9.70;99.90;;;;;;5020150;28;20519;-67
2023/10/27 05:25:52;;;;;;;48.20;21.20;;;9.60;99.90;;;;;;5036175;28;20061;-68
2023/10/27 05:28:19;;;;;;;47.60;21.35;;;9.50;99.90;;;;;;5024535;28;20389;-67
2023/10/27 05:30:50;;;;;;;45.08;20.33;;;9.60;99.90;;;;;;5052502;28;20041;-67
2023/10/27 05:33:16;;;;;;;45.55;20.50;;;9.60;99.90;;;;;;5051808;28;20110;-68
2023/10/27 05:35:43;;;;;;;47.88;21.25;;;9.70;99.90;;;;;;5055881;28;20045;-68
2023/10/27 05:38:09;;;;;;;44.33;20.38;;;9.70;99.90;;;;;;5055911;28;20453;-68
2023/10/27 05:40:35;;;;;;;42.88;19.95;;;9.40;99.90;;;;;;5039072;28;20048;-67
2023/10/27 05:43:01;;;;;;;48.08;20.48;;;9.40;99.90;;;;;;5056041;28;20072;-67
2023/10/27 05:45:28;;;;;;;47.53;20.42;;;9.50;99.90;;;;;;5059383;28;20048;-67
2023/10/27 05:47:54;;;;;;;46.47;19.30;;;9.50;99.90;;;;;;5059996;28;20044;-67
2023/10/27 05:50:20;;;;;;;47.58;18.55;;;9.40;99.90;;;;;;5043297;28;20429;-67
2023/10/27 05:52:46;;;;;;;44.67;19.67;;;9.60;99.90;;;;;;5059481;28;20053;-67
2023/10/27 05:55:13;;;;;;;43.13;18.83;;;9.40;99.90;;;;;;5059217;28;20056;-67
2023/10/27 05:57:39;;;;;;;42.97;18.48;;;9.40;99.90;;;;;;5059578;28;20449;-67
2023/10/27 06:00:06;;;;;;;46.25;20.05;;;9.40;99.90;;;;;;5059166;28;20362;-68
2023/10/27 06:02:32;;;;;;;45.28;19.88;;;9.40;99.90;;;;;;5059363;28;20060;-68
2023/10/27 06:04:59;;;;;;;45.15;19.63;;;9.40;99.90;;;;;;5058774;28;20063;-68
2023/10/27 06:07:25;;;;;;;44.08;19.60;;;9.30;99.90;;;;;;5039717;28;20053;-67
2023/10/27 06:09:53;;;;;;;42.33;19.30;;;9.60;99.90;;;;;;5053651;28;20110;-68
2023/10/27 06:12:19;;;;;;;38.60;17.70;;;9.60;99.90;;;;;;5056980;28;20187;-68
2023/10/27 06:14:45;;;;;;;37.80;18.23;;;9.30;99.90;;;;;;5051989;28;20373;-67
2023/10/27 06:17:12;;;;;;;39.22;18.52;;;9.60;99.90;;;;;;5055622;28;20045;-66
2023/10/27 06:19:39;;;;;;;42.35;19.88;;;9.60;99.90;;;;;;5055993;28;20040;-67
2023/10/27 06:22:05;;;;;;;42.83;18.67;;;9.40;99.90;;;;;;5056301;28;20102;-67
2023/10/27 06:24:31;;;;;;;41.42;19.42;;;9.30;99.90;;;;;;5051048;28;20052;-67
2023/10/27 06:26:58;;;;;;;47.00;20.33;;;9.40;99.90;;;;;;5024251;28;20049;-67
2023/10/27 06:29:24;;;;;;;43.53;21.75;;;9.50;99.90;;;;;;5056550;28;20391;-67
2023/10/27 06:31:51;;;;;;;42.78;20.27;;;9.50;99.90;;;;;;5056229;28;20044;-67
2023/10/27 06:34:17;;;;;;;47.00;21.50;;;9.30;99.90;;;;;;5057416;28;20048;-67
2023/10/27 06:36:43;;;;;;;43.22;21.48;;;9.50;99.90;;;;;;5041760;28;20048;-67
2023/10/27 06:39:12;;;;;;;44.42;20.55;;;9.50;99.90;;;;;;5036568;28;20103;-67
2023/10/27 06:41:39;;;;;;;47.90;21.83;;;9.30;99.90;;;;;;5036685;28;20052;-67
2023/10/27 06:44:06;;;;;;;50.28;21.83;;;9.50;99.90;;;;;;5026428;28;20389;-67
2023/10/27 06:46:33;;;;;;;51.72;21.10;;;9.50;99.90;;;;;;5059752;28;20484;-67
2023/10/27 06:49:00;;;;;;;51.95;22.10;;;9.30;99.90;;;;;;5075908;28;20352;-67
2023/10/27 06:51:26;;;;;;;48.92;23.02;;;9.40;99.90;;;;;;5072687;28;20461;-67
2023/10/27 06:53:52;;;;;;;50.22;22.08;;;9.50;99.90;;;;;;5072634;28;20446;-67
2023/10/27 06:56:18;;;;;;;47.90;20.67;;;9.40;99.90;;;;;;5075117;28;20063;-67
2023/10/27 06:58:44;;;;;;;47.05;21.75;;;9.50;99.90;;;;;;5074151;28;20040;-67
2023/10/27 07:01:11;;;;;;;46.28;21.40;;;9.30;99.90;;;;;;5074889;28;20449;-67
2023/10/27 07:03:37;;;;;;;47.47;21.67;;;9.60;99.90;;;;;;5059393;28;20123;-67
2023/10/27 07:06:04;;;;;;;49.08;21.33;;;9.40;99.90;;;;;;5072949;28;20055;-67
2023/10/27 07:08:31;;;;;;;45.25;21.48;;;9.40;99.90;;;;;;5075700;28;20044;-67
2023/10/27 07:11:00;;;;;;;45.03;21.38;;;9.60;99.90;;;;;;5075764;28;20064;-66
2023/10/27 07:13:27;;;;;;;44.92;21.65;;;9.60;99.90;;;;;;5075893;28;20051;-67
2023/10/27 07:15:54;;;;;;;44.58;20.80;;;9.40;99.90;;;;;;5075885;28;20044;-66
2023/10/27 07:18:20;;;;;;;43.17;20.55;;;9.60;99.90;;;;;;5072933;28;20042;-67
2023/10/27 07:20:47;;;;;;;44.33;21.10;;;9.60;99.90;;;;;;5076283;28;20243;-67
2023/10/27 07:23:16;;;;;;;41.03;20.15;;;9.60;99.90;;;;;;5076904;28;20460;-67
2023/10/27 07:25:42;;;;;;;44.55;20.05;;;9.70;99.90;;;;;;5076501;28;20047;-67
2023/10/27 07:28:08;;;;;;;41.70;21.00;;;9.50;99.90;;;;;;5072744;28;20064;-67
2023/10/27 07:30:35;;;;;;;43.72;19.98;;;9.50;99.90;;;;;;5076195;28;20118;-67
2023/10/27 07:33:01;;;;;;;36.95;18.50;;;9.70;99.90;;;;;;5059838;28;20051;-67
2023/10/27 07:35:28;;;;;;;36.47;20.00;;;9.50;99.90;;;;;;5076444;28;20059;-67
2023/10/27 07:38:01;;;;;;;40.10;20.05;;;9.70;99.90;;;;;;5076048;28;20052;-67
2023/10/27 07:40:27;;;;;;;40.50;19.85;;;9.70;99.90;;;;;;5059801;28;20472;-66
2023/10/27 07:42:57;;;;;;;40.72;19.83;;;9.50;99.90;;;;;;5074932;28;20107;-67
2023/10/27 07:45:25;;;;;;;37.83;20.02;;;9.50;99.90;;;;;;5075006;28;20062;-67
2023/10/27 07:47:51;;;;;;;42.15;19.23;;;9.50;99.90;;;;;;5075651;28;20051;-67
2023/10/27 07:50:18;;;;;;;42.80;20.17;;;9.50;99.90;;;;;;5075717;28;20329;-67
2023/10/27 07:52:45;;;;;;;40.50;20.13;;;9.50;99.90;;;;;;5072038;28;20041;-67
2023/10/27 07:55:11;;;;;;;38.72;21.25;;;9.60;99.90;;;;;;5065391;28;20506;-67
2023/10/27 07:57:38;;;;;;;39.53;20.38;;;9.70;99.90;;;;;;5076030;28;20044;-67
2023/10/27 08:00:09;;;;;;;41.05;20.48;;;9.70;99.90;;;;;;5064710;28;20051;-67
2023/10/27 08:02:36;;;;;;;39.28;18.77;;;9.50;99.90;;;;;;5039468;28;20052;-67
2023/10/27 08:05:04;;;;;;;39.03;18.40;;;9.70;99.90;;;;;;5056526;28;20052;-67
2023/10/27 08:07:30;;;;;;;39.58;19.15;;;9.80;99.90;;;;;;5038530;28;20056;-67
2023/10/27 08:09:57;;;;;;;38.47;17.92;;;9.70;99.90;;;;;;5062764;28;20060;-65
2023/10/27 08:12:23;;;;;;;39.85;19.75;;;9.70;99.90;;;;;;5074701;28;20044;-65
2023/10/27 08:14:50;;;;;;;40.38;19.52;;;9.50;99.90;;;;;;5075270;28;20055;-67
2023/10/27 08:17:17;;;;;;;40.08;21.50;;;9.80;99.90;;;;;;5075153;28;20048;-66
2023/10/27 08:19:43;;;;;;;37.60;19.60;;;9.60;99.90;;;;;;5074812;28;20044;-66
2023/10/27 08:22:09;;;;;;;39.03;18.17;;;9.60;99.90;;;;;;5075426;28;20432;-67
2023/10/27 08:24:36;;;;;;;32.38;16.92;;;9.80;99.90;;;;;;5074119;28;20048;-66
2023/10/27 08:27:03;;;;;;;34.15;16.70;;;9.60;99.90;;;;;;5074162;28;20044;-66
2023/10/27 08:29:29;;;;;;;36.22;18.55;;;9.80;99.90;;;;;;5074313;28;20460;-67
2023/10/27 08:31:55;;;;;;;33.50;17.92;;;9.60;99.90;;;;;;5073415;28;20051;-67
2023/10/27 08:34:21;;;;;;;33.70;16.65;;;9.90;99.90;;;;;;5071829;28;20624;-67
2023/10/27 08:36:48;;;;;;;35.15;18.23;;;9.70;99.90;;;;;;5054774;28;20052;-67
2023/10/27 08:39:14;;;;;;;34.83;18.00;;;9.80;99.90;;;;;;5072235;28;20044;-67
2023/10/27 08:41:41;;;;;;;35.72;18.15;;;9.90;99.90;;;;;;5072859;28;20044;-67
2023/10/27 08:44:08;;;;;;;33.78;18.25;;;9.80;99.90;;;;;;5066571;28;20065;-67
2023/10/27 08:46:34;;;;;;;36.47;18.38;;;9.90;99.90;;;;;;5032767;28;20430;-67
2023/10/27 08:49:01;;;;;;;37.60;18.85;;;9.90;99.90;;;;;;5032717;28;20472;-68
2023/10/27 08:51:29;;;;;;;39.38;19.50;;;9.90;99.90;;;;;;5033603;28;20045;-67
2023/10/27 08:53:57;;;;;;;37.65;19.58;;;9.70;99.90;;;;;;5034484;28;20060;-67
2023/10/27 08:56:24;;;;;;;41.65;20.33;;;9.90;99.90;;;;;;5032324;28;20056;-67
2023/10/27 08:58:53;;;;;;;35.50;17.75;;;10.00;99.90;;;;;;5032169;28;20075;-67
2023/10/27 09:01:20;;;;;;;36.72;18.15;;;9.90;99.90;;;;;;5015894;28;20083;-68
2023/10/27 09:04:12;;;;;;;36.50;19.17;;;9.80;99.90;;;;;;5032383;28;20318;-67
2023/10/27 09:06:40;;;;;;;38.33;18.95;;;9.90;99.90;;;;;;5032883;28;20059;-67
2023/10/27 09:09:09;;;;;;;37.85;19.02;;;9.90;99.90;;;;;;5032608;28;20049;-67
2023/10/27 09:11:41;;;;;;;35.70;18.70;;;9.80;99.90;;;;;;5049145;28;20476;-67
2023/10/27 09:14:30;;;;;;;37.58;17.98;;;10.00;99.90;;;;;;5032780;28;20048;-67
2023/10/27 09:17:05;;;;;;;36.72;18.70;;;10.00;99.90;;;;;;5031942;28;20111;-67
2023/10/27 09:19:32;;;;;;;35.67;18.63;;;10.10;99.90;;;;;;5034635;28;20424;-66
2023/10/27 09:21:59;;;;;;;36.15;17.05;;;9.90;99.90;;;;;;5019385;28;20053;-66
2023/10/27 09:24:27;;;;;;;31.98;16.92;;;10.20;99.90;;;;;;5038583;28;20057;-66
2023/10/27 09:26:55;;;;;;;31.40;16.08;;;10.00;99.90;;;;;;5038556;28;20053;-68
2023/10/27 09:29:22;;;;;;;31.63;16.55;;;10.10;99.90;;;;;;5054314;28;20052;-68
2023/10/27 09:31:50;;;;;;;32.42;15.70;;;9.90;99.90;;;;;;5036612;28;20058;-68
2023/10/27 09:34:21;;;;;;;33.17;17.25;;;10.20;99.90;;;;;;5037883;28;20051;-68
2023/10/27 09:36:49;;;;;;;31.95;15.52;;;10.20;99.90;;;;;;5035818;28;20052;-67
2023/10/27 09:39:16;;;;;;;27.75;15.25;;;10.10;99.90;;;;;;5041161;28;20430;-67
2023/10/27 09:41:48;;;;;;;34.85;16.02;;;10.00;99.90;;;;;;5055960;28;20049;-67
2023/10/27 09:44:18;;;;;;;31.23;15.70;;;10.20;99.90;;;;;;5053625;28;20501;-67
2023/10/27 09:46:52;;;;;;;30.20;14.98;;;10.20;99.90;;;;;;5055829;28;20047;-66
2023/10/27 09:49:29;;;;;;;29.85;15.27;;;10.10;99.90;;;;;;5072583;28;20354;-66
2023/10/27 09:52:00;;;;;;;29.38;16.38;;;10.10;99.90;;;;;;5075034;28;20472;-67
2023/10/27 09:54:31;;;;;;;31.85;14.85;;;10.30;99.90;;;;;;5071705;28;20040;-67
2023/10/27 09:57:00;;;;;;;28.52;15.13;;;10.30;99.90;;;;;;5055241;28;20408;-66
2023/10/27 09:59:30;;;;;;;32.65;17.02;;;10.40;99.90;;;;;;5054843;28;20041;-67
2023/10/27 10:02:04;;;;;;;29.50;15.63;;;10.20;99.90;;;;;;5055269;28;20048;-66
2023/10/27 10:04:50;;;;;;;29.70;15.82;;;10.30;99.90;;;;;;5043641;28;20052;-66
2023/10/27 10:07:32;;;;;;;30.33;16.42;;;10.30;99.90;;;;;;5054744;28;20048;-66
2023/10/27 10:10:15;;;;;;;29.25;15.40;;;10.40;99.90;;;;;;5052848;28;20055;-66
2023/10/27 10:13:01;;;;;;;30.55;16.60;;;10.20;99.90;;;;;;5038194;28;20526;-66
2023/10/27 10:15:28;;;;;;;32.03;15.18;;;10.30;99.90;;;;;;5026980;28;20049;-66
2023/10/27 10:17:55;;;;;;;29.00;15.85;;;10.30;99.90;;;;;;5035148;28;20057;-66
2023/10/27 10:20:57;;;;;;;31.67;16.67;;;10.20;99.90;;;;;;5034579;28;20056;-66
2023/10/27 10:23:37;;;;;;;28.75;15.65;;;10.50;99.90;;;;;;4935731;29;20254;-66
2023/10/27 10:26:04;;;;;;;29.08;16.35;;;10.50;99.90;;;;;;5054112;28;20450;-66
2023/10/27 10:28:36;;;;;;;29.08;16.13;;;10.30;99.90;;;;;;5072513;28;20471;-67
2023/10/27 10:31:13;;;;;;;29.40;16.45;;;10.50;99.90;;;;;;5048243;28;20130;-66
2023/10/27 10:33:40;;;;;;;31.73;17.08;;;10.40;99.90;;;;;;5072974;28;20039;-66
2023/10/27 10:36:22;;;;;;;28.27;15.18;;;10.50;99.90;;;;;;5056145;28;20068;-66
2023/10/27 10:39:04;;;;;;;26.55;15.20;;;10.50;99.90;;;;;;5035760;28;20052;-66
2023/10/27 10:41:49;;;;;;;27.33;15.32;;;10.40;99.90;;;;;;5052820;28;20044;-67
2023/10/27 10:44:17;;;;;;;26.05;14.77;;;10.20;99.90;;;;;;5053025;28;20103;-66
2023/10/27 10:46:44;;;;;;;21.63;13.30;;;10.40;99.90;;;;;;5034040;28;20350;-67
2023/10/27 10:49:26;;;;;;;25.00;13.68;;;10.50;99.90;;;;;;5033745;28;20643;-67
2023/10/27 10:51:57;;;;;;;26.55;14.85;;;10.40;99.90;;;;;;5033511;28;20045;-66
2023/10/27 10:54:28;;;;;;;26.13;14.23;;;10.40;99.90;;;;;;5035616;28;20044;-66
2023/10/27 10:56:59;;;;;;;25.70;14.20;;;10.30;99.90;;;;;;5053792;28;20110;-67
2023/10/27 10:59:25;;;;;;;24.95;14.10;;;10.50;99.90;;;;;;5053645;28;20064;-66
2023/10/27 11:01:56;;;;;;;24.85;14.82;;;10.30;99.90;;;;;;5053638;28;20048;-66
2023/10/27 11:04:33;;;;;;;22.17;14.07;;;10.50;99.90;;;;;;5052204;28;20053;-67
2023/10/27 11:07:02;;;;;;;25.30;13.05;;;10.20;99.90;;;;;;5033616;28;20126;-67
2023/10/27 11:09:29;;;;;;;22.40;12.57;;;10.40;99.90;;;;;;5033527;28;20060;-66
2023/10/27 11:11:55;;;;;;;21.05;12.85;;;10.30;99.90;;;;;;5017583;28;20049;-67
2023/10/27 11:14:22;;;;;;;20.00;12.10;;;10.50;99.90;;;;;;5035235;28;20036;-66
2023/10/27 11:17:00;;;;;;;21.40;13.02;;;10.50;99.90;;;;;;5037054;28;20044;-66
2023/10/27 11:19:26;;;;;;;;;;;10.30;99.90;;;;;;5071655;28;20053;-66
2023/10/27 11:21:54;;;;;;;18.88;11.73;;;10.50;99.90;;;;;;5053733;28;20320;-67
2023/10/27 11:24:21;;;;;;;18.45;11.05;;;10.50;99.90;;;;;;5052778;28;20453;-67
2023/10/27 11:26:48;;;;;;;18.98;10.95;;;10.30;99.90;;;;;;5033543;28;20053;-67
2023/10/27 11:29:14;;;;;;;20.45;12.35;;;10.30;99.90;;;;;;5033335;28;20060;-66
2023/10/27 11:31:42;;;;;;;20.60;11.20;;;10.50;99.90;;;;;;5033385;28;20172;-67
2023/10/27 11:34:13;;;;;;;18.63;11.68;;;10.40;99.90;;;;;;5034146;28;20107;-66
2023/10/27 11:36:55;;;;;;;17.63;10.32;;;10.50;99.90;;;;;;5052809;28;20048;-66
2023/10/27 11:39:23;;;;;;;17.25;10.25;;;10.30;99.90;;;;;;5052780;28;20053;-66
2023/10/27 11:41:54;;;;;;;16.65;10.07;;;10.50;99.90;;;;;;5052609;28;20051;-66
2023/10/27 11:44:21;;;;;;;16.17;10.95;;;10.30;99.90;;;;;;5060074;28;20114;-67
2023/10/27 11:46:49;;;;;;;17.63;11.20;;;10.50;99.90;;;;;;5073211;28;20377;-66
2023/10/27 11:49:17;;;;;;;16.58;10.40;;;10.30;99.90;;;;;;5056430;28;20044;-66
2023/10/27 11:51:44;;;;;;;17.25;10.40;;;10.30;99.90;;;;;;5073005;28;20052;-66
2023/10/27 11:54:10;;;;;;;16.27;9.63;;;10.40;99.90;;;;;;5073028;28;20055;-66
2023/10/27 11:56:37;;;;;;;14.25;9.13;;;10.30;99.90;;;;;;5053224;28;20391;-67
2023/10/27 11:59:04;;;;;;;17.40;10.57;;;10.30;99.90;;;;;;5052531;28;20048;-66
2023/10/27 12:01:31;;;;;;;14.88;9.35;;;10.30;99.90;;;;;;5036495;28;20048;-66
2023/10/27 12:03:57;;;;;;;17.50;10.93;;;10.40;99.90;;;;;;5053006;28;20060;-66
2023/10/27 12:06:25;;;;;;;15.25;10.00;;;10.40;99.90;;;;;;5053362;28;20066;-66
2023/10/27 12:08:52;;;;;;;16.55;10.40;;;10.30;99.90;;;;;;5072575;28;20071;-66
2023/10/27 12:11:19;;;;;;;14.80;9.70;;;10.50;99.90;;;;;;5072881;28;20062;-65
2023/10/27 12:13:45;;;;;;;14.35;8.93;;;10.50;99.90;;;;;;5072931;28;20094;-66
2023/10/27 12:16:11;;;;;;;15.18;10.77;;;10.60;99.90;;;;;;5056520;28;20535;-66
2023/10/27 12:18:38;;;;;;;15.88;9.98;;;10.50;99.90;;;;;;5052774;28;20044;-66
2023/10/27 12:21:04;;;;;;;15.75;9.75;;;10.60;99.90;;;;;;5036092;28;20052;-67
2023/10/27 12:23:32;;;;;;;15.10;9.35;;;10.60;99.90;;;;;;5036006;28;20449;-66
2023/10/27 12:26:03;;;;;;;14.95;9.30;;;10.50;99.90;;;;;;5053315;28;20057;-66
2023/10/27 12:28:30;;;;;;;14.05;9.43;;;10.70;99.90;;;;;;5035705;28;20056;-66
2023/10/27 12:30:58;;;;;;;13.63;8.82;;;10.50;99.90;;;;;;5052898;28;20048;-66
2023/10/27 12:33:24;;;;;;;14.48;8.75;;;10.60;99.90;;;;;;5052283;28;20048;-66
2023/10/27 12:35:51;;;;;;;14.77;9.57;;;10.50;99.90;;;;;;5036259;28;20040;-66
2023/10/27 12:38:19;;;;;;;14.45;9.77;;;10.80;99.90;;;;;;5052013;28;20421;-67